createdAt,value
2018-10-18T00:02:25.178Z,21.90
2018-10-18T00:04:53.383Z,21.87
2018-10-18T00:07:21.564Z,31.48
2018-10-18T00:09:50.949Z,26.44
2018-10-18T00:12:19.173Z,27.33
2018-10-18T00:14:47.353Z,25.57
2018-10-18T00:17:48.140Z,26.57
2018-10-18T00:20:17.205Z,25.48
2018-10-18T00:22:45.888Z,23.70
2018-10-18T00:25:14.504Z,28.14
2018-10-18T00:27:42.672Z,27.87
2018-10-18T00:30:12.241Z,23.50
2018-10-18T00:32:40.765Z,21.77
2018-10-18T00:35:09.161Z,24.10
2018-10-18T00:37:41.191Z,24.60
2018-10-18T00:40:10.811Z,21.80
2018-10-18T00:42:39.012Z,29.35
2018-10-18T00:45:07.864Z,27.87
2018-10-18T00:47:36.160Z,37.83
2018-10-18T00:50:04.931Z,28.83
2018-10-18T00:52:33.066Z,31.20
2018-10-18T00:55:01.243Z,36.65
2018-10-18T00:57:29.432Z,30.20
2018-10-18T00:59:57.605Z,29.00
2018-10-18T01:02:25.819Z,31.93
2018-10-18T01:04:53.990Z,35.47
2018-10-18T01:07:22.194Z,30.60
2018-10-18T01:09:53.394Z,39.40
2018-10-18T01:12:21.693Z,47.37
2018-10-18T01:14:50.129Z,35.13
2018-10-18T01:17:18.275Z,32.77
2018-10-18T01:19:46.489Z,39.35
2018-10-18T01:22:15.096Z,32.40
2018-10-18T01:24:43.284Z,30.20
2018-10-18T01:27:11.488Z,32.58
2018-10-18T01:29:42.736Z,36.30
2018-10-18T01:32:11.233Z,30.05
2018-10-18T01:34:39.949Z,32.95
2018-10-18T01:37:08.160Z,32.10
2018-10-18T01:39:36.324Z,32.95
2018-10-18T01:42:05.866Z,36.67
2018-10-18T01:44:35.155Z,29.92
2018-10-18T01:47:03.580Z,35.87
2018-10-18T01:49:31.766Z,27.43
2018-10-18T01:52:00.487Z,32.00
2018-10-18T01:54:33.287Z,28.70
2018-10-18T01:57:01.517Z,29.30
2018-10-18T01:59:30.320Z,30.20
2018-10-18T02:01:58.609Z,23.43
2018-10-18T02:04:26.768Z,21.05
2018-10-18T02:06:55.312Z,21.02
2018-10-18T02:09:28.032Z,24.43
2018-10-18T02:11:56.340Z,16.00
2018-10-18T02:14:24.546Z,16.87
2018-10-18T02:16:52.747Z,17.50
2018-10-18T02:19:20.993Z,16.90
2018-10-18T02:21:49.173Z,18.63
2018-10-18T02:24:27.915Z,19.67
2018-10-18T02:26:56.116Z,27.97
2018-10-18T02:29:24.345Z,26.02
2018-10-18T02:31:52.565Z,29.37
2018-10-18T02:34:21.686Z,29.18
2018-10-18T02:36:50.105Z,29.53
2018-10-18T02:39:18.303Z,32.80
2018-10-18T02:41:46.752Z,30.25
2018-10-18T02:44:14.972Z,31.43
2018-10-18T02:46:43.153Z,34.08
2018-10-18T02:49:11.374Z,36.90
2018-10-18T02:51:39.576Z,33.00
2018-10-18T02:54:07.913Z,33.02
2018-10-18T02:56:36.237Z,31.00
2018-10-18T02:59:05.020Z,33.63
2018-10-18T03:01:33.212Z,30.03
2018-10-18T03:04:01.431Z,30.37
2018-10-18T03:06:29.637Z,34.00
2018-10-18T03:08:57.872Z,30.23
2018-10-18T03:11:26.099Z,32.17
2018-10-18T03:13:54.288Z,32.87
2018-10-18T03:16:22.483Z,32.93
2018-10-18T03:18:50.651Z,35.60
2018-10-18T03:21:18.869Z,32.33
2018-10-18T03:23:47.068Z,32.20
2018-10-18T03:26:15.271Z,28.40
2018-10-18T03:28:43.452Z,32.17
2018-10-18T03:31:11.683Z,32.03
2018-10-18T03:33:39.890Z,28.30
2018-10-18T03:36:08.083Z,25.30
2018-10-18T03:38:36.257Z,25.48
2018-10-18T03:41:04.784Z,33.23
2018-10-18T03:43:33.004Z,31.15
2018-10-18T03:46:01.253Z,24.17
2018-10-18T03:48:29.456Z,26.67
2018-10-18T03:50:57.716Z,28.67
2018-10-18T03:53:26.224Z,25.57
2018-10-18T03:56:01.589Z,24.43
2018-10-18T03:58:29.995Z,20.80
2018-10-18T04:00:58.172Z,22.22
2018-10-18T04:03:26.446Z,23.17
2018-10-18T04:05:55.057Z,22.50
2018-10-18T04:08:23.257Z,24.33
2018-10-18T04:10:55.862Z,34.33
2018-10-18T04:13:24.082Z,33.30
2018-10-18T04:15:52.465Z,30.75
2018-10-18T04:18:20.702Z,31.90
2018-10-18T04:20:48.907Z,34.05
2018-10-18T04:23:33.008Z,41.60
2018-10-18T04:26:02.036Z,33.33
2018-10-18T04:28:30.592Z,37.13
2018-10-18T04:30:59.072Z,36.58
2018-10-18T04:33:27.416Z,35.43
2018-10-18T04:35:55.772Z,35.92
2018-10-18T04:38:24.009Z,30.63
2018-10-18T04:40:52.247Z,37.35
2018-10-18T04:43:20.508Z,32.17
2018-10-18T04:45:48.752Z,33.10
2018-10-18T04:48:17.035Z,38.47
2018-10-18T04:50:45.225Z,36.70
2018-10-18T04:53:13.422Z,43.53
2018-10-18T04:55:41.606Z,35.20
2018-10-18T04:58:13.957Z,43.83
2018-10-18T05:00:42.135Z,45.77
2018-10-18T05:03:10.354Z,46.40
2018-10-18T05:05:54.522Z,45.13
2018-10-18T05:08:23.909Z,39.45
2018-10-18T05:10:52.187Z,36.87
2018-10-18T05:13:23.665Z,37.42
2018-10-18T05:15:51.855Z,37.47
2018-10-18T05:18:20.639Z,35.60
2018-10-18T05:25:45.161Z,33.88
2018-10-18T05:28:17.874Z,37.13
2018-10-18T05:30:46.064Z,29.83
2018-10-18T05:33:15.388Z,27.13
2018-10-18T05:35:43.530Z,37.13
2018-10-18T05:38:11.774Z,35.17
2018-10-18T05:40:40.048Z,31.90
2018-10-18T05:43:11.538Z,35.00
2018-10-18T05:45:39.972Z,38.35
2018-10-18T05:48:08.348Z,41.10
2018-10-18T05:50:36.579Z,35.27
2018-10-18T05:53:05.139Z,44.90
2018-10-18T05:55:33.280Z,38.83
2018-10-18T05:58:01.485Z,39.90
2018-10-18T06:00:29.674Z,37.93
2018-10-18T06:02:57.847Z,43.38
2018-10-18T06:05:26.161Z,33.50
2018-10-18T06:07:54.585Z,46.37
2018-10-18T06:10:34.322Z,31.07
2018-10-18T06:13:05.718Z,33.33
2018-10-18T06:15:33.908Z,31.87
2018-10-18T06:18:02.111Z,47.67
2018-10-18T06:20:31.235Z,34.40
2018-10-18T06:22:59.582Z,36.20
2018-10-18T06:25:27.709Z,42.10
2018-10-18T06:27:56.236Z,38.16
2018-10-18T06:30:24.496Z,41.80
2018-10-18T06:32:52.813Z,37.55
2018-10-18T06:35:21.087Z,37.03
2018-10-18T06:37:49.322Z,39.00
2018-10-18T06:40:18.184Z,45.50
2018-10-18T06:42:46.407Z,38.95
2018-10-18T06:45:18.169Z,34.73
2018-10-18T06:47:46.881Z,37.47
2018-10-18T06:50:17.308Z,37.20
2018-10-18T06:52:45.459Z,35.63
2018-10-18T06:55:13.749Z,36.63
2018-10-18T06:57:42.729Z,33.90
2018-10-18T07:00:14.361Z,38.85
2018-10-18T07:02:43.273Z,35.58
2018-10-18T07:05:12.693Z,40.75
2018-10-18T07:07:42.249Z,35.98
2018-10-18T07:10:10.676Z,36.50
2018-10-18T07:12:39.389Z,36.53
2018-10-18T07:15:08.533Z,32.83
2018-10-18T07:17:38.043Z,37.40
2018-10-18T07:20:07.660Z,39.98
2018-10-18T07:22:36.720Z,40.77
2018-10-18T07:25:06.208Z,38.73
2018-10-18T07:27:34.381Z,36.85
2018-10-18T07:30:06.990Z,40.83
2018-10-18T07:32:35.138Z,44.40
2018-10-18T07:35:03.413Z,39.55
2018-10-18T07:37:31.624Z,37.37
2018-10-18T07:39:59.800Z,36.45
2018-10-18T07:42:28.268Z,37.00
2018-10-18T07:45:05.180Z,37.30
2018-10-18T07:47:33.826Z,34.63
2018-10-18T07:50:01.994Z,43.73
2018-10-18T07:52:30.272Z,39.35
2018-10-18T07:54:58.447Z,47.63
2018-10-18T07:57:26.717Z,57.87
2018-10-18T07:59:54.937Z,53.73
2018-10-18T08:02:23.162Z,73.05
2018-10-18T08:04:51.387Z,67.83
2018-10-18T08:07:19.597Z,87.42
2018-10-18T08:09:47.797Z,95.87
2018-10-18T08:12:16.021Z,70.40
2018-10-18T08:14:44.249Z,61.93
2018-10-18T08:17:12.556Z,56.73
2018-10-18T08:19:40.724Z,56.07
2018-10-18T08:22:08.972Z,52.25
2018-10-18T08:24:37.179Z,40.10
2018-10-18T08:27:05.560Z,40.87
2018-10-18T08:29:33.770Z,42.70
2018-10-18T08:32:05.691Z,45.48
2018-10-18T08:34:33.911Z,41.07
2018-10-18T08:37:02.707Z,41.05
2018-10-18T08:39:30.868Z,38.48
2018-10-18T08:41:59.093Z,40.23
2018-10-18T08:44:27.496Z,44.23
2018-10-18T08:46:59.599Z,44.43
2018-10-18T08:49:27.825Z,47.78
2018-10-18T08:51:56.073Z,41.05
2018-10-18T08:54:24.304Z,45.60
2018-10-18T08:56:52.530Z,45.98
2018-10-18T08:59:20.804Z,47.23
2018-10-18T09:01:52.175Z,46.63
2018-10-18T09:04:20.607Z,42.37
2018-10-18T09:06:48.806Z,43.83
2018-10-18T09:09:17.766Z,43.75
2018-10-18T09:11:45.780Z,38.77
2018-10-18T09:14:13.998Z,44.58
2018-10-18T09:16:42.508Z,41.68
2018-10-18T09:19:10.797Z,44.90
2018-10-18T09:21:38.920Z,37.90
2018-10-18T09:24:07.277Z,46.70
2018-10-18T09:26:35.472Z,41.30
2018-10-18T09:29:03.648Z,48.30
2018-10-18T09:31:31.986Z,41.13
2018-10-18T09:34:00.116Z,36.33
2018-10-18T09:36:28.708Z,38.63
2018-10-18T09:38:56.908Z,47.23
2018-10-18T09:41:25.208Z,42.17
2018-10-18T09:43:58.809Z,44.10
2018-10-18T09:46:35.288Z,39.18
2018-10-18T09:49:04.180Z,43.00
2018-10-18T09:51:32.346Z,43.98
2018-10-18T09:54:01.617Z,39.55
2018-10-18T09:56:30.256Z,39.63
2018-10-18T09:58:58.467Z,50.57
2018-10-18T10:01:32.072Z,44.03
2018-10-18T10:04:04.788Z,44.60
2018-10-18T10:06:32.979Z,45.00
2018-10-18T10:09:01.184Z,47.00
2018-10-18T10:11:29.406Z,36.73
2018-10-18T10:13:57.599Z,38.63
2018-10-18T10:16:25.777Z,42.33
2018-10-18T10:18:57.769Z,48.00
2018-10-18T10:21:28.863Z,37.08
2018-10-18T10:23:57.041Z,40.93
2018-10-18T10:26:25.316Z,41.95
2018-10-18T10:28:53.512Z,41.85
2018-10-18T10:31:21.712Z,40.00
2018-10-18T10:33:53.331Z,39.40
2018-10-18T10:36:21.625Z,44.33
2018-10-18T10:38:49.888Z,41.67
2018-10-18T10:41:18.118Z,44.03
2018-10-18T10:43:46.320Z,44.97
2018-10-18T10:46:14.586Z,51.67
2018-10-18T10:48:46.366Z,39.97
2018-10-18T10:51:14.638Z,43.00
2018-10-18T10:53:42.780Z,49.00
2018-10-18T10:56:11.111Z,44.53
2018-10-18T10:58:39.431Z,48.38
2018-10-18T11:01:10.553Z,50.87
2018-10-18T11:03:43.917Z,53.00
2018-10-18T11:06:12.589Z,42.55
2018-10-18T11:08:40.678Z,46.60
2018-10-18T11:11:09.356Z,49.63
2018-10-18T11:13:37.590Z,41.53
2018-10-18T11:16:06.362Z,40.10
2018-10-18T11:18:39.512Z,42.30
2018-10-18T11:21:08.920Z,45.63
2018-10-18T11:23:37.128Z,40.63
2018-10-18T11:26:06.335Z,40.00
2018-10-18T11:28:34.612Z,40.67
2018-10-18T11:31:02.844Z,40.17
2018-10-18T11:33:31.040Z,42.03
2018-10-18T11:35:59.284Z,44.50
2018-10-18T11:38:27.575Z,39.67
2018-10-18T11:40:55.940Z,41.57
2018-10-18T11:43:24.221Z,42.73
2018-10-18T11:45:52.480Z,33.93
2018-10-18T11:48:20.765Z,44.83
2018-10-18T11:50:49.004Z,40.55
2018-10-18T11:53:17.228Z,38.90
2018-10-18T11:55:45.432Z,36.67
2018-10-18T11:58:14.045Z,37.53
2018-10-18T12:00:42.307Z,33.90
2018-10-18T12:03:10.492Z,36.30
2018-10-18T12:05:39.631Z,36.38
2018-10-18T12:08:07.992Z,36.47
2018-10-18T12:10:36.184Z,35.33
2018-10-18T12:13:04.751Z,35.90
2018-10-18T12:15:32.949Z,37.30
2018-10-18T12:18:01.191Z,36.63
2018-10-18T12:20:29.484Z,35.53
2018-10-18T12:22:57.647Z,33.25
2018-10-18T12:25:25.940Z,30.50
2018-10-18T12:27:54.213Z,27.10
2018-10-18T12:30:22.405Z,26.80
2018-10-18T12:32:50.600Z,29.05
2018-10-18T12:35:18.918Z,32.23
2018-10-18T12:37:47.081Z,34.43
2018-10-18T12:40:15.374Z,29.33
2018-10-18T12:42:44.672Z,28.75
2018-10-18T12:45:13.725Z,28.80
2018-10-18T12:47:42.025Z,33.13
2018-10-18T12:50:10.336Z,41.20
2018-10-18T12:52:38.517Z,24.05
2018-10-18T12:55:07.105Z,26.10
2018-10-18T12:57:35.312Z,26.90
2018-10-18T13:00:03.595Z,23.37
2018-10-18T13:02:31.902Z,25.30
2018-10-18T13:05:03.433Z,29.57
2018-10-18T13:07:31.686Z,31.33
2018-10-18T13:10:00.015Z,35.17
2018-10-18T13:12:28.582Z,31.25
2018-10-18T13:14:56.699Z,33.20
2018-10-18T13:17:25.289Z,24.43
2018-10-18T13:19:53.565Z,25.20
2018-10-18T13:22:21.776Z,27.82
2018-10-18T13:24:50.002Z,23.90
2018-10-18T13:27:18.211Z,33.53
2018-10-18T13:29:46.468Z,25.33
2018-10-18T13:32:14.764Z,28.37
2018-10-18T13:34:42.960Z,30.07
2018-10-18T13:37:11.180Z,29.93
2018-10-18T13:39:39.448Z,21.23
2018-10-18T13:42:07.746Z,27.23
2018-10-18T13:44:35.940Z,25.60
2018-10-18T13:47:04.442Z,25.20
2018-10-18T13:49:32.647Z,26.30
2018-10-18T13:52:00.995Z,27.70
2018-10-18T13:54:29.265Z,26.03
2018-10-18T13:56:57.488Z,34.35
2018-10-18T13:59:37.106Z,31.17
2018-10-18T14:02:05.663Z,35.35
2018-10-18T14:04:33.826Z,33.47
2018-10-18T14:07:02.029Z,28.17
2018-10-18T14:09:30.228Z,28.40
2018-10-18T14:11:58.432Z,36.33
2018-10-18T14:14:26.677Z,30.05
2018-10-18T14:16:54.940Z,27.53
2018-10-18T14:19:23.288Z,30.10
2018-10-18T14:21:55.095Z,29.93
2018-10-18T14:24:23.305Z,30.32
2018-10-18T14:26:51.525Z,34.50
2018-10-18T14:29:19.798Z,30.43
2018-10-18T14:31:48.472Z,33.10
2018-10-18T14:34:16.663Z,33.43
2018-10-18T14:36:47.948Z,31.67
2018-10-18T14:39:16.221Z,29.80
2018-10-18T14:41:44.517Z,26.53
2018-10-18T14:44:13.236Z,31.30
2018-10-18T14:46:41.427Z,31.43
2018-10-18T14:49:09.676Z,27.30
2018-10-18T14:51:41.855Z,24.97
2018-10-18T14:54:10.132Z,22.93
2018-10-18T14:56:38.365Z,22.30
2018-10-18T14:59:06.713Z,22.98
2018-10-18T15:01:34.909Z,23.32
2018-10-18T15:04:03.178Z,23.18
2018-10-18T15:06:31.396Z,39.80
2018-10-18T15:09:03.532Z,24.47
2018-10-18T15:11:31.844Z,21.33
2018-10-18T15:14:00.065Z,22.27
2018-10-18T15:16:28.312Z,28.50
2018-10-18T15:18:56.533Z,23.77
2018-10-18T15:21:24.924Z,24.70
2018-10-18T15:23:53.164Z,24.13
2018-10-18T15:26:21.738Z,24.07
2018-10-18T15:28:49.888Z,20.43
2018-10-18T15:31:18.379Z,25.07
2018-10-18T15:33:46.614Z,24.60
2018-10-18T15:36:14.839Z,29.50
2018-10-18T15:38:43.440Z,27.90
2018-10-18T15:41:12.735Z,22.75
2018-10-18T15:43:40.880Z,22.90
2018-10-18T15:46:09.266Z,23.87
2018-10-18T15:48:37.458Z,24.60
2018-10-18T15:51:05.772Z,20.17
2018-10-18T15:53:36.690Z,22.80
2018-10-18T15:56:05.272Z,19.97
2018-10-18T15:58:33.541Z,28.60
2018-10-18T16:01:02.205Z,18.00
2018-10-18T16:03:30.392Z,21.20
2018-10-18T16:05:58.636Z,25.47
2018-10-18T16:08:31.596Z,20.20
2018-10-18T16:10:59.892Z,23.37
2018-10-18T16:13:28.042Z,24.33
2018-10-18T16:15:56.583Z,26.23
2018-10-18T16:18:24.817Z,29.83
2018-10-18T16:20:53.158Z,26.40
2018-10-18T16:23:30.383Z,22.87
2018-10-18T16:25:58.782Z,26.53
2018-10-18T16:28:26.982Z,20.80
2018-10-18T16:30:55.257Z,24.97
2018-10-18T16:33:23.432Z,30.80
2018-10-18T16:35:51.656Z,22.13
2018-10-18T16:38:19.992Z,23.37
2018-10-18T16:40:48.361Z,24.23
2018-10-18T16:43:16.595Z,28.25
2018-10-18T16:45:44.780Z,29.13
2018-10-18T16:48:13.138Z,28.53
2018-10-18T16:50:41.271Z,25.27
2018-10-18T16:53:09.489Z,24.37
2018-10-18T16:55:37.729Z,28.73
2018-10-18T16:58:06.038Z,25.43
2018-10-18T17:00:34.276Z,24.63
2018-10-18T17:03:02.549Z,22.60
2018-10-18T17:05:30.804Z,25.82
2018-10-18T17:07:59.106Z,23.57
2018-10-18T17:10:27.640Z,23.43
2018-10-18T17:12:55.884Z,25.60
2018-10-18T17:15:24.300Z,26.60
2018-10-18T17:17:52.629Z,21.50
2018-10-18T17:25:18.165Z,27.13
2018-10-18T17:27:47.028Z,26.65
2018-10-18T17:30:15.183Z,26.85
2018-10-18T17:32:43.303Z,20.52
2018-10-18T17:35:11.468Z,28.63
2018-10-18T17:37:39.698Z,27.60
2018-10-18T17:40:12.185Z,27.87
2018-10-18T17:42:40.439Z,29.30
2018-10-18T17:45:09.652Z,27.07
2018-10-18T17:47:37.867Z,36.00
2018-10-18T17:50:07.345Z,29.42
2018-10-18T17:52:35.920Z,28.77
2018-10-18T17:55:07.521Z,31.40
2018-10-18T17:57:36.244Z,35.38
2018-10-18T18:00:07.421Z,33.70
2018-10-18T18:02:35.748Z,33.43
2018-10-18T18:05:04.018Z,30.13
2018-10-18T18:07:32.907Z,31.75
2018-10-18T18:10:05.337Z,32.33
2018-10-18T18:12:33.536Z,32.97
2018-10-18T18:15:01.773Z,31.57
2018-10-18T18:17:30.324Z,29.03
2018-10-18T18:19:58.527Z,31.70
2018-10-18T18:22:27.744Z,27.30
2018-10-18T18:24:55.999Z,33.50
2018-10-18T18:27:24.282Z,31.13
2018-10-18T18:29:52.915Z,34.15
2018-10-18T18:32:21.198Z,40.00
2018-10-18T18:34:49.422Z,29.92
2018-10-18T18:37:17.724Z,31.35
2018-10-18T18:39:45.919Z,30.50
2018-10-18T18:42:14.245Z,31.90
2018-10-18T18:44:42.452Z,38.50
2018-10-18T18:47:10.677Z,35.43
2018-10-18T18:49:38.880Z,38.23
2018-10-18T18:52:07.584Z,37.43
2018-10-18T18:54:35.843Z,38.27
2018-10-18T18:57:04.129Z,36.65
2018-10-18T18:59:32.312Z,49.83
2018-10-18T19:02:00.537Z,34.03
2018-10-18T19:04:28.760Z,40.37
2018-10-18T19:06:57.029Z,37.67
2018-10-18T19:09:25.233Z,38.47
2018-10-18T19:11:53.423Z,39.53
2018-10-18T19:14:21.582Z,37.77
2018-10-18T19:16:49.827Z,46.90
2018-10-18T19:19:18.278Z,42.00
2018-10-18T19:21:46.561Z,42.90
2018-10-18T19:24:14.840Z,42.35
2018-10-18T19:26:43.040Z,39.92
2018-10-18T19:29:11.224Z,37.50
2018-10-18T19:31:40.348Z,38.42
2018-10-18T19:34:08.784Z,42.67
2018-10-18T19:36:37.069Z,42.03
2018-10-18T19:39:07.353Z,42.97
2018-10-18T19:41:36.679Z,40.60
2018-10-18T19:44:05.168Z,44.33
2018-10-18T19:46:33.501Z,42.30
2018-10-18T19:49:01.800Z,43.28
2018-10-18T19:51:30.251Z,44.10
2018-10-18T19:53:58.783Z,45.03
2018-10-18T19:56:30.934Z,41.40
2018-10-18T19:58:59.313Z,49.87
2018-10-18T20:01:27.895Z,42.33
2018-10-18T20:03:56.733Z,39.53
2018-10-18T20:06:25.903Z,47.83
2018-10-18T20:08:54.129Z,46.10
2018-10-18T20:11:22.355Z,44.07
2018-10-18T20:13:50.829Z,43.73
2018-10-18T20:16:19.226Z,48.47
2018-10-18T20:18:47.606Z,46.10
2018-10-18T20:21:15.891Z,42.30
2018-10-18T20:23:44.151Z,41.37
2018-10-18T20:26:12.699Z,42.70
2018-10-18T20:28:40.606Z,50.87
2018-10-18T20:31:09.564Z,51.37
2018-10-18T20:33:38.147Z,45.95
2018-10-18T20:36:06.634Z,45.80
2018-10-18T20:38:35.239Z,46.10
2018-10-18T20:41:03.534Z,53.57
2018-10-18T20:43:31.710Z,52.48
2018-10-18T20:45:59.965Z,53.93
2018-10-18T20:48:28.687Z,50.67
2018-10-18T20:50:57.966Z,48.90
2018-10-18T20:53:26.175Z,49.53
2018-10-18T20:55:54.689Z,56.63
2018-10-18T20:58:27.165Z,52.87
2018-10-18T21:00:55.347Z,50.70
2018-10-18T21:03:23.548Z,52.67
2018-10-18T21:05:51.817Z,55.25
2018-10-18T21:08:26.780Z,54.45
2018-10-18T21:10:55.105Z,55.28
2018-10-18T21:13:23.282Z,57.30
2018-10-18T21:15:51.613Z,58.07
2018-10-18T21:18:19.824Z,55.60
2018-10-18T21:20:48.587Z,62.23
2018-10-18T21:23:17.247Z,64.30
2018-10-18T21:25:46.455Z,61.25
2018-10-18T21:28:14.696Z,66.10
2018-10-18T21:30:42.960Z,71.55
2018-10-18T21:33:11.232Z,66.27
2018-10-18T21:35:39.398Z,57.67
2018-10-18T21:38:07.675Z,60.30
2018-10-18T21:40:36.200Z,61.02
2018-10-18T21:43:05.602Z,71.05
2018-10-18T21:45:34.118Z,67.07
2018-10-18T21:48:02.568Z,69.03
2018-10-18T21:50:30.801Z,57.50
2018-10-18T21:52:59.101Z,72.57
2018-10-18T21:55:27.259Z,70.13
2018-10-18T21:57:55.634Z,66.33
2018-10-18T22:00:24.768Z,79.50
2018-10-18T22:05:27.623Z,74.37
2018-10-18T22:07:55.948Z,72.08
2018-10-18T22:10:24.150Z,76.07
2018-10-18T22:12:52.685Z,71.23
2018-10-18T22:15:24.875Z,72.03
2018-10-18T22:17:53.112Z,84.33
2018-10-18T22:20:21.299Z,77.53
2018-10-18T22:22:49.603Z,76.80
2018-10-18T22:25:17.836Z,85.37
2018-10-18T22:27:46.028Z,73.37
2018-10-18T22:30:14.236Z,74.80
2018-10-18T22:32:42.475Z,78.27
2018-10-18T22:35:10.989Z,77.80
2018-10-18T22:37:39.135Z,86.50
2018-10-18T22:40:07.990Z,92.07
2018-10-18T22:42:36.208Z,97.77
2018-10-18T22:45:15.477Z,99.77
2018-10-18T22:47:43.641Z,97.20
2018-10-18T22:50:11.892Z,110.43
2018-10-18T22:52:40.091Z,112.60
2018-10-18T22:55:08.330Z,104.57
2018-10-18T22:57:36.661Z,112.80
2018-10-18T23:00:06.011Z,113.30
2018-10-18T23:02:34.204Z,129.83
2018-10-18T23:05:02.464Z,119.10
2018-10-18T23:07:30.874Z,107.70
2018-10-18T23:09:59.104Z,107.37
2018-10-18T23:12:27.328Z,94.28
2018-10-18T23:15:03.174Z,111.10
2018-10-18T23:17:31.706Z,111.88
2018-10-18T23:19:59.951Z,109.77
2018-10-18T23:22:28.152Z,91.55
2018-10-18T23:24:56.656Z,93.90
2018-10-18T23:27:24.932Z,99.43
2018-10-18T23:29:53.130Z,109.22
2018-10-18T23:32:21.296Z,119.20
2018-10-18T23:34:49.491Z,113.90
2018-10-18T23:37:17.708Z,110.53
2018-10-18T23:39:46.115Z,103.60
2018-10-18T23:42:14.360Z,107.90
2018-10-18T23:44:42.582Z,110.77
2018-10-18T23:47:10.862Z,110.93
2018-10-18T23:49:38.979Z,115.47
2018-10-18T23:52:07.192Z,130.93
2018-10-18T23:54:35.538Z,116.12
2018-10-18T23:57:03.837Z,118.50
2018-10-18T23:59:31.967Z,114.10
